sensor_id;sensor_type;location;lat;lon;timestamp;P1;durP1;ratioP1;P2;durP2;ratioP2
57339;SDS011;43174;50.930;18.170;2023-04-07T00:03:28;15.80;;;14.70;;
57339;SDS011;43174;50.930;18.170;2023-04-07T00:13:10;24.10;;;22.10;;
57339;SDS011;43174;50.930;18.170;2023-04-07T00:22:51;24.90;;;19.20;;
57339;SDS011;43174;50.930;18.170;2023-04-07T00:32:34;51.20;;;25.50;;
57339;SDS011;43174;50.930;18.170;2023-04-07T00:42:16;32.50;;;25.70;;
57339;SDS011;43174;50.930;18.170;2023-04-07T00:51:59;19.30;;;17.60;;
57339;SDS011;43174;50.930;18.170;2023-04-07T01:02:25;21.70;;;18.80;;
57339;SDS011;43174;50.930;18.170;2023-04-07T01:21:49;18.40;;;16.70;;
57339;SDS011;43174;50.930;18.170;2023-04-07T01:26:42;29.00;;;22.50;;
57339;SDS011;43174;50.930;18.170;2023-04-07T01:36:26;11.50;;;10.30;;
57339;SDS011;43174;50.930;18.170;2023-04-07T01:46:11;27.50;;;10.80;;
57339;SDS011;43174;50.930;18.170;2023-04-07T01:55:52;19.60;;;18.10;;
57339;SDS011;43174;50.930;18.170;2023-04-07T02:05:37;11.00;;;10.50;;
57339;SDS011;43174;50.930;18.170;2023-04-07T02:15:20;51.40;;;17.00;;
57339;SDS011;43174;50.930;18.170;2023-04-07T02:25:02;15.50;;;14.40;;
57339;SDS011;43174;50.930;18.170;2023-04-07T02:34:58;24.00;;;19.30;;
57339;SDS011;43174;50.930;18.170;2023-04-07T02:44:40;15.70;;;14.10;;
57339;SDS011;43174;50.930;18.170;2023-04-07T02:54:23;15.70;;;14.50;;
57339;SDS011;43174;50.930;18.170;2023-04-07T03:04:05;16.90;;;15.50;;
57339;SDS011;43174;50.930;18.170;2023-04-07T03:13:48;22.30;;;19.90;;
57339;SDS011;43174;50.930;18.170;2023-04-07T03:23:30;22.50;;;17.10;;
57339;SDS011;43174;50.930;18.170;2023-04-07T03:33:12;35.60;;;25.00;;
57339;SDS011;43174;50.930;18.170;2023-04-07T03:42:54;70.70;;;24.00;;
57339;SDS011;43174;50.930;18.170;2023-04-07T03:52:36;22.30;;;17.90;;
57339;SDS011;43174;50.930;18.170;2023-04-07T04:02:19;11.50;;;11.00;;
57339;SDS011;43174;50.930;18.170;2023-04-07T04:12:00;15.00;;;14.20;;
57339;SDS011;43174;50.930;18.170;2023-04-07T04:21:43;17.00;;;16.10;;
57339;SDS011;43174;50.930;18.170;2023-04-07T04:38:43;19.60;;;16.60;;
57339;SDS011;43174;50.930;18.170;2023-04-07T04:48:27;16.30;;;14.90;;
57339;SDS011;43174;50.930;18.170;2023-04-07T04:58:17;20.60;;;16.30;;
57339;SDS011;43174;50.930;18.170;2023-04-07T05:08:00;19.50;;;18.20;;
57339;SDS011;43174;50.930;18.170;2023-04-07T05:17:42;21.00;;;18.70;;
57339;SDS011;43174;50.930;18.170;2023-04-07T05:27:26;34.20;;;17.90;;
57339;SDS011;43174;50.930;18.170;2023-04-07T05:44:27;18.50;;;12.10;;
57339;SDS011;43174;50.930;18.170;2023-04-07T05:54:10;16.40;;;15.40;;
57339;SDS011;43174;50.930;18.170;2023-04-07T06:03:53;17.10;;;16.00;;
57339;SDS011;43174;50.930;18.170;2023-04-07T06:13:36;18.00;;;16.60;;
57339;SDS011;43174;50.930;18.170;2023-04-07T06:23:19;14.10;;;13.00;;
57339;SDS011;43174;50.930;18.170;2023-04-07T06:33:09;7.70;;;7.40;;
57339;SDS011;43174;50.930;18.170;2023-04-07T06:42:52;14.80;;;14.00;;
57339;SDS011;43174;50.930;18.170;2023-04-07T06:52:36;14.70;;;13.50;;
57339;SDS011;43174;50.930;18.170;2023-04-07T07:02:20;16.70;;;12.40;;
57339;SDS011;43174;50.930;18.170;2023-04-07T07:12:04;21.70;;;14.50;;
57339;SDS011;43174;50.930;18.170;2023-04-07T07:21:47;18.70;;;17.10;;
57339;SDS011;43174;50.930;18.170;2023-04-07T07:31:31;17.60;;;15.90;;
57339;SDS011;43174;50.930;18.170;2023-04-07T07:48:30;22.80;;;20.40;;
57339;SDS011;43174;50.930;18.170;2023-04-07T07:58:14;8.60;;;8.10;;
57339;SDS011;43174;50.930;18.170;2023-04-07T08:07:58;26.60;;;19.90;;
57339;SDS011;43174;50.930;18.170;2023-04-07T08:17:41;17.30;;;16.10;;
57339;SDS011;43174;50.930;18.170;2023-04-07T08:27:24;13.80;;;13.10;;
57339;SDS011;43174;50.930;18.170;2023-04-07T08:37:06;13.00;;;12.00;;
57339;SDS011;43174;50.930;18.170;2023-04-07T08:46:53;12.10;;;11.50;;
57339;SDS011;43174;50.930;18.170;2023-04-07T08:56:37;20.80;;;18.60;;
57339;SDS011;43174;50.930;18.170;2023-04-07T09:06:23;12.70;;;12.10;;
57339;SDS011;43174;50.930;18.170;2023-04-07T09:16:06;29.00;;;19.80;;
57339;SDS011;43174;50.930;18.170;2023-04-07T09:25:49;22.50;;;14.60;;
57339;SDS011;43174;50.930;18.170;2023-04-07T09:35:31;21.00;;;16.60;;
57339;SDS011;43174;50.930;18.170;2023-04-07T09:45:22;14.90;;;14.10;;
57339;SDS011;43174;50.930;18.170;2023-04-07T09:55:05;18.30;;;16.30;;
57339;SDS011;43174;50.930;18.170;2023-04-07T10:04:48;16.10;;;14.70;;
57339;SDS011;43174;50.930;18.170;2023-04-07T10:14:31;22.70;;;17.20;;
57339;SDS011;43174;50.930;18.170;2023-04-07T10:34:14;14.80;;;13.70;;
57339;SDS011;43174;50.930;18.170;2023-04-07T10:43:59;13.10;;;12.40;;
57339;SDS011;43174;50.930;18.170;2023-04-07T11:11:12;16.60;;;15.30;;
57339;SDS011;43174;50.930;18.170;2023-04-07T11:28:15;12.50;;;11.80;;
57339;SDS011;43174;50.930;18.170;2023-04-07T11:37:59;20.10;;;15.20;;
57339;SDS011;43174;50.930;18.170;2023-04-07T11:47:45;13.80;;;13.10;;
57339;SDS011;43174;50.930;18.170;2023-04-07T11:57:27;14.20;;;12.90;;
57339;SDS011;43174;50.930;18.170;2023-04-07T12:07:13;11.50;;;10.50;;
57339;SDS011;43174;50.930;18.170;2023-04-07T12:16:56;10.80;;;10.30;;
57339;SDS011;43174;50.930;18.170;2023-04-07T12:26:40;19.90;;;13.00;;
57339;SDS011;43174;50.930;18.170;2023-04-07T12:36:24;10.80;;;10.00;;
57339;SDS011;43174;50.930;18.170;2023-04-07T12:46:09;16.10;;;15.00;;
57339;SDS011;43174;50.930;18.170;2023-04-07T12:55:53;19.30;;;15.70;;
57339;SDS011;43174;50.930;18.170;2023-04-07T13:05:38;14.80;;;13.20;;
57339;SDS011;43174;50.930;18.170;2023-04-07T13:15:21;13.30;;;12.30;;
57339;SDS011;43174;50.930;18.170;2023-04-07T13:25:07;14.60;;;13.20;;
57339;SDS011;43174;50.930;18.170;2023-04-07T13:34:59;10.70;;;10.10;;
57339;SDS011;43174;50.930;18.170;2023-04-07T13:44:45;5.80;;;5.60;;
57339;SDS011;43174;50.930;18.170;2023-04-07T13:54:35;12.60;;;11.50;;
57339;SDS011;43174;50.930;18.170;2023-04-07T14:04:17;7.50;;;6.60;;
57339;SDS011;43174;50.930;18.170;2023-04-07T14:14:00;10.00;;;9.60;;
57339;SDS011;43174;50.930;18.170;2023-04-07T14:23:47;10.40;;;10.00;;
57339;SDS011;43174;50.930;18.170;2023-04-07T14:33:30;17.20;;;10.20;;
57339;SDS011;43174;50.930;18.170;2023-04-07T14:43:15;9.30;;;8.60;;
57339;SDS011;43174;50.930;18.170;2023-04-07T14:52:58;17.10;;;15.00;;
57339;SDS011;43174;50.930;18.170;2023-04-07T15:02:40;10.80;;;10.20;;
57339;SDS011;43174;50.930;18.170;2023-04-07T15:12:24;14.20;;;12.00;;
57339;SDS011;43174;50.930;18.170;2023-04-07T15:22:08;11.20;;;10.30;;
57339;SDS011;43174;50.930;18.170;2023-04-07T15:31:50;11.50;;;10.70;;
57339;SDS011;43174;50.930;18.170;2023-04-07T15:41:35;10.70;;;9.90;;
57339;SDS011;43174;50.930;18.170;2023-04-07T15:51:23;21.80;;;14.70;;
57339;SDS011;43174;50.930;18.170;2023-04-07T16:08:28;14.80;;;12.00;;
57339;SDS011;43174;50.930;18.170;2023-04-07T16:18:12;16.20;;;13.10;;
57339;SDS011;43174;50.930;18.170;2023-04-07T16:27:54;18.10;;;8.10;;
57339;SDS011;43174;50.930;18.170;2023-04-07T16:37:36;45.90;;;11.40;;
57339;SDS011;43174;50.930;18.170;2023-04-07T16:47:25;15.50;;;13.80;;
57339;SDS011;43174;50.930;18.170;2023-04-07T16:57:08;20.70;;;12.60;;
57339;SDS011;43174;50.930;18.170;2023-04-07T17:06:51;14.90;;;12.00;;
57339;SDS011;43174;50.930;18.170;2023-04-07T17:16:34;10.10;;;9.50;;
57339;SDS011;43174;50.930;18.170;2023-04-07T17:26:17;8.80;;;8.40;;
57339;SDS011;43174;50.930;18.170;2023-04-07T17:36:00;8.60;;;8.10;;
57339;SDS011;43174;50.930;18.170;2023-04-07T17:45:43;5.50;;;5.30;;
57339;SDS011;43174;50.930;18.170;2023-04-07T17:48:10;20.80;;;13.70;;
57339;SDS011;43174;50.930;18.170;2023-04-07T17:57:53;15.20;;;14.20;;
57339;SDS011;43174;50.930;18.170;2023-04-07T18:07:45;19.20;;;14.20;;
57339;SDS011;43174;50.930;18.170;2023-04-07T18:17:29;13.70;;;10.00;;
57339;SDS011;43174;50.930;18.170;2023-04-07T18:27:16;9.70;;;9.10;;
57339;SDS011;43174;50.930;18.170;2023-04-07T18:36:59;30.50;;;19.20;;
57339;SDS011;43174;50.930;18.170;2023-04-07T18:46:43;88.20;;;21.00;;
57339;SDS011;43174;50.930;18.170;2023-04-07T18:56:28;9.00;;;8.40;;
57339;SDS011;43174;50.930;18.170;2023-04-07T19:06:15;74.70;;;21.50;;
57339;SDS011;43174;50.930;18.170;2023-04-07T19:23:20;36.00;;;20.00;;
57339;SDS011;43174;50.930;18.170;2023-04-07T19:33:02;11.20;;;10.40;;
57339;SDS011;43174;50.930;18.170;2023-04-07T19:42:45;6.70;;;6.40;;
57339;SDS011;43174;50.930;18.170;2023-04-07T19:52:30;10.50;;;9.40;;
57339;SDS011;43174;50.930;18.170;2023-04-07T20:02:13;11.10;;;10.40;;
57339;SDS011;43174;50.930;18.170;2023-04-07T20:11:56;37.40;;;13.20;;
57339;SDS011;43174;50.930;18.170;2023-04-07T20:21:39;15.90;;;14.10;;
57339;SDS011;43174;50.930;18.170;2023-04-07T20:31:21;11.70;;;10.70;;
57339;SDS011;43174;50.930;18.170;2023-04-07T20:41:03;28.20;;;17.10;;
57339;SDS011;43174;50.930;18.170;2023-04-07T20:50:48;40.80;;;19.80;;
57339;SDS011;43174;50.930;18.170;2023-04-07T21:00:32;48.70;;;23.40;;
57339;SDS011;43174;50.930;18.170;2023-04-07T21:10:14;63.00;;;26.40;;
57339;SDS011;43174;50.930;18.170;2023-04-07T21:19:57;59.00;;;29.00;;
57339;SDS011;43174;50.930;18.170;2023-04-07T21:29:40;129.30;;;29.00;;
57339;SDS011;43174;50.930;18.170;2023-04-07T21:39:23;74.10;;;29.10;;
57339;SDS011;43174;50.930;18.170;2023-04-07T21:49:09;68.00;;;28.70;;
57339;SDS011;43174;50.930;18.170;2023-04-07T21:58:53;117.30;;;35.20;;
57339;SDS011;43174;50.930;18.170;2023-04-07T22:08:36;54.20;;;20.70;;
57339;SDS011;43174;50.930;18.170;2023-04-07T22:18:18;127.90;;;31.40;;
57339;SDS011;43174;50.930;18.170;2023-04-07T22:28:01;117.10;;;41.40;;
57339;SDS011;43174;50.930;18.170;2023-04-07T22:37:43;67.80;;;27.70;;
57339;SDS011;43174;50.930;18.170;2023-04-07T22:47:26;98.50;;;29.50;;
57339;SDS011;43174;50.930;18.170;2023-04-07T22:57:08;105.60;;;30.30;;
57339;SDS011;43174;50.930;18.170;2023-04-07T23:06:50;158.50;;;45.80;;
57339;SDS011;43174;50.930;18.170;2023-04-07T23:16:32;184.30;;;57.60;;
57339;SDS011;43174;50.930;18.170;2023-04-07T23:26:15;159.00;;;43.20;;
57339;SDS011;43174;50.930;18.170;2023-04-07T23:35:57;165.30;;;44.70;;
57339;SDS011;43174;50.930;18.170;2023-04-07T23:45:39;199.60;;;45.00;;
57339;SDS011;43174;50.930;18.170;2023-04-07T23:55:21;151.70;;;41.20;;
